createdAt,value
2023-05-24T00:04:47.218Z,20.2
2023-05-24T00:10:38.790Z,20.2
2023-05-24T00:16:15.021Z,20.2
2023-05-24T00:22:08.734Z,20.1
2023-05-24T00:28:00.745Z,20.1
2023-05-24T00:33:37.521Z,20.2
2023-05-24T00:39:29.300Z,20.2
2023-05-24T00:45:21.309Z,20.2
2023-05-24T00:51:14.139Z,20.2
2023-05-24T00:56:51.205Z,20.2
2023-05-24T01:02:43.703Z,20.1
2023-05-24T01:08:38.044Z,20.1
2023-05-24T01:14:30.596Z,20.2
2023-05-24T01:20:22.214Z,20.1
2023-05-24T01:26:13.161Z,20.1
2023-05-24T01:32:05.472Z,20.1
2023-05-24T01:37:42.051Z,20.1
2023-05-24T01:43:18.216Z,20.1
2023-05-24T01:49:09.908Z,20.1
2023-05-24T01:55:01.728Z,20.1
2023-05-24T02:00:53.197Z,20.1
2023-05-24T02:06:30.019Z,20.1
2023-05-24T02:12:21.391Z,20.1
2023-05-24T02:18:12.690Z,20.1
2023-05-24T02:23:49.370Z,20.1
2023-05-24T02:29:40.809Z,20.1
2023-05-24T02:35:32.451Z,20.1
2023-05-24T02:41:23.418Z,20.1
2023-05-24T02:47:15.357Z,20.1
2023-05-24T02:52:51.653Z,20.1
2023-05-24T02:58:43.638Z,20.1
2023-05-24T03:04:36.598Z,20.1
2023-05-24T03:10:30.231Z,20.1
2023-05-24T03:16:20.955Z,20.1
2023-05-24T03:22:13.481Z,20.1
2023-05-24T03:28:05.024Z,20.1
2023-05-24T03:33:56.544Z,20.1
2023-05-24T03:39:47.946Z,20.1
2023-05-24T03:45:54.117Z,20.1
2023-05-24T03:51:46.084Z,20
2023-05-24T03:57:38.124Z,20.1
2023-05-24T04:03:44.766Z,20
2023-05-24T04:09:05.314Z,20
2023-05-24T04:14:57.107Z,20.1
2023-05-24T04:20:50.362Z,20
2023-05-24T04:26:42.310Z,20.1
2023-05-24T04:32:34.777Z,20.1
2023-05-24T04:38:26.647Z,20
2023-05-24T04:44:17.892Z,20
2023-05-24T04:50:10.588Z,20
2023-05-24T04:56:02.004Z,20
2023-05-24T05:01:40.641Z,20
2023-05-24T05:07:33.186Z,20
2023-05-24T05:13:25.452Z,20
2023-05-24T05:19:17.765Z,20
2023-05-24T05:24:55.092Z,20
2023-05-24T05:30:31.083Z,20
2023-05-24T05:36:10.671Z,20
2023-05-24T05:42:03.131Z,20
2023-05-24T05:47:38.794Z,20
2023-05-24T05:53:30.735Z,20
2023-05-24T05:59:22.573Z,20
2023-05-24T06:05:16.122Z,20
2023-05-24T06:11:09.174Z,20
2023-05-24T06:17:01.158Z,20
2023-05-24T06:23:03.448Z,20
2023-05-24T06:28:54.352Z,20
2023-05-24T06:34:54.717Z,20.1
2023-05-24T06:40:45.970Z,20.1
2023-05-24T06:46:36.442Z,20.1
2023-05-24T06:52:29.965Z,20.1
2023-05-24T06:58:23.813Z,20.1
2023-05-24T07:04:16.147Z,20.1
2023-05-24T07:10:08.163Z,20.1
2023-05-24T07:15:44.630Z,20.1
2023-05-24T07:21:36.985Z,20.1
2023-05-24T07:27:31.330Z,20.1
2023-05-24T07:33:05.678Z,20.1
2023-05-24T07:38:45.250Z,20.1
2023-05-24T07:44:37.220Z,20.1
2023-05-24T07:50:14.027Z,20.1
2023-05-24T07:56:05.651Z,20.1
2023-05-24T08:01:58.259Z,20.1
2023-05-24T08:07:35.084Z,20.1
2023-05-24T08:13:26.409Z,20.1
2023-05-24T08:19:03.737Z,20.1
2023-05-24T08:24:58.435Z,20.1
2023-05-24T08:30:50.810Z,20.1
2023-05-24T08:36:43.435Z,20.1
2023-05-24T08:42:46.892Z,20.1
2023-05-24T08:48:24.298Z,20.1
2023-05-24T08:54:18.858Z,20.1
2023-05-24T09:00:10.766Z,20.1
2023-05-24T09:05:33.898Z,20.1
2023-05-24T09:11:10.427Z,20.1
2023-05-24T09:17:12.705Z,20.1
2023-05-24T09:23:12.306Z,20.1
2023-05-24T09:28:49.061Z,20.1
2023-05-24T09:34:26.372Z,20.1
2023-05-24T09:40:17.673Z,20.1
2023-05-24T09:45:40.109Z,20.1
2023-05-24T09:51:32.841Z,20.1
2023-05-24T09:57:10.039Z,20.1
2023-05-24T10:03:14.565Z,20.1
2023-05-24T10:09:10.397Z,20.1
2023-05-24T10:15:02.273Z,20.1
2023-05-24T10:44:26.278Z,20.1
2023-05-24T10:50:06.786Z,20.3
2023-05-24T10:55:37.667Z,20.3
2023-05-24T11:01:04.744Z,20.3
2023-05-24T11:06:27.219Z,20.3
2023-05-24T11:11:32.379Z,20.3
2023-05-24T11:16:56.504Z,20.5
2023-05-24T11:22:03.105Z,20.4
2023-05-24T11:27:39.093Z,20.4
2023-05-24T11:33:21.741Z,20.4
2023-05-24T11:39:08.025Z,20.4
2023-05-24T11:44:45.007Z,20.4
2023-05-24T11:50:22.812Z,20.5
2023-05-24T11:56:09.522Z,20.8
2023-05-24T12:01:46.244Z,20.7
2023-05-24T12:07:28.282Z,20.6
2023-05-24T12:13:18.561Z,20.6
2023-05-24T12:18:51.497Z,20.6
2023-05-24T12:24:52.432Z,20.6
2023-05-24T12:30:29.745Z,20.6
2023-05-24T12:36:07.321Z,20.6
2023-05-24T12:42:01.828Z,20.6
2023-05-24T12:47:54.443Z,20.6
2023-05-24T12:53:30.407Z,20.7
2023-05-24T12:59:08.606Z,20.9
2023-05-24T13:04:45.376Z,21.1
2023-05-24T13:10:07.054Z,20.9
2023-05-24T13:15:28.671Z,20.8
2023-05-24T13:21:05.968Z,20.9
2023-05-24T13:26:57.283Z,20.9
2023-05-24T13:33:03.090Z,20.8
2023-05-24T13:38:26.465Z,20.8
2023-05-24T13:43:46.490Z,20.8
2023-05-24T13:49:20.942Z,20.8
2023-05-24T13:54:59.193Z,20.8
2023-05-24T14:00:24.115Z,20.8
2023-05-24T14:06:01.075Z,20.7
2023-05-24T14:11:40.137Z,20.7
2023-05-24T14:18:35.024Z,20.7
2023-05-24T14:23:56.700Z,20.7
2023-05-24T14:29:17.832Z,20.7
2023-05-24T14:34:39.528Z,20.7
2023-05-24T14:40:00.669Z,20.6
2023-05-24T14:45:23.499Z,20.6
2023-05-24T14:51:16.276Z,20.6
2023-05-24T14:56:52.893Z,20.6
2023-05-24T15:02:32.484Z,20.6
2023-05-24T15:08:08.765Z,20.6
2023-05-24T15:13:45.808Z,20.6
2023-05-24T15:19:22.187Z,20.6
2023-05-24T15:24:59.587Z,20.6
2023-05-24T15:30:38.091Z,20.6
2023-05-24T15:36:17.264Z,20.6
2023-05-24T15:41:52.264Z,20.6
2023-05-24T15:47:28.814Z,20.6
2023-05-24T15:54:31.026Z,20.6
2023-05-24T16:00:21.408Z,20.6
2023-05-24T16:06:13.670Z,20.6
2023-05-24T16:11:52.989Z,20.6
2023-05-24T16:17:31.679Z,20.6
2023-05-24T16:23:23.459Z,20.6
2023-05-24T16:29:17.322Z,20.6
2023-05-24T16:35:28.102Z,20.6
2023-05-24T16:41:21.164Z,20.6
2023-05-24T16:46:57.561Z,20.6
2023-05-24T16:52:49.527Z,20.6
2023-05-24T16:58:41.085Z,20.6
2023-05-24T17:04:36.704Z,20.6
2023-05-24T17:10:31.272Z,20.6
2023-05-24T17:16:22.954Z,20.6
2023-05-24T17:22:15.128Z,20.6
2023-05-24T17:27:55.012Z,20.6
2023-05-24T17:33:47.325Z,20.6
2023-05-24T17:39:38.654Z,20.6
2023-05-24T17:45:29.125Z,20.6
2023-05-24T17:51:10.692Z,20.6
2023-05-24T17:57:05.900Z,20.6
2023-05-24T18:02:57.605Z,20.6
2023-05-24T18:08:52.793Z,20.6
2023-05-24T18:14:46.051Z,20.6
2023-05-24T18:20:38.643Z,20.6
2023-05-24T18:26:35.226Z,20.6
2023-05-24T18:32:27.618Z,20.6
2023-05-24T18:38:22.450Z,20.6
2023-05-24T18:43:59.716Z,20.6
2023-05-24T18:49:52.767Z,20.6
2023-05-24T18:55:28.882Z,20.6
2023-05-24T19:01:07.596Z,20.6
2023-05-24T19:07:01.548Z,20.6
2023-05-24T19:12:37.161Z,20.6
2023-05-24T19:18:30.423Z,20.6
2023-05-24T19:24:23.551Z,20.6
2023-05-24T19:30:07.300Z,20.6
2023-05-24T19:35:55.648Z,20.6
2023-05-24T19:41:32.359Z,20.6
2023-05-24T19:47:23.958Z,20.6
2023-05-24T19:53:17.216Z,20.6
2023-05-24T19:58:38.876Z,20.6
2023-05-24T20:04:32.480Z,20.6
2023-05-24T20:10:09.156Z,20.6
2023-05-24T20:15:30.451Z,20.6
2023-05-24T20:21:07.366Z,20.6
2023-05-24T20:26:43.481Z,20.6
2023-05-24T20:32:33.123Z,20.6
2023-05-24T20:38:09.789Z,20.6
2023-05-24T20:43:45.897Z,20.6
2023-05-24T20:49:25.377Z,20.6
2023-05-24T20:55:01.417Z,20.6
2023-05-24T21:00:39.909Z,20.7
2023-05-24T21:06:18.368Z,20.7
2023-05-24T21:11:39.664Z,20.7
2023-05-24T21:17:00.772Z,20.6
2023-05-24T21:22:37.766Z,20.7
2023-05-24T21:27:42.810Z,20.7
2023-05-24T21:33:35.104Z,20.6
2023-05-24T21:39:11.400Z,20.6
2023-05-24T21:44:31.935Z,20.6
2023-05-24T21:50:24.397Z,20.6
2023-05-24T21:56:16.401Z,20.6
2023-05-24T22:02:11.377Z,20.5
2023-05-24T22:08:03.910Z,20.5
2023-05-24T22:13:55.369Z,20.5
2023-05-24T22:19:55.079Z,20.5
2023-05-24T22:25:47.212Z,20.4
2023-05-24T22:31:25.340Z,20.4
2023-05-24T22:37:16.919Z,20.4
2023-05-24T22:42:53.576Z,20.5
2023-05-24T22:48:30.271Z,20.5
2023-05-24T22:54:21.498Z,20.4
